Portada
METAR-TAF:

METAR-TAF

Aeroports :

McComb, Mississipí, Estats Units d'Amèrica

latitud: 31-10-42N, longitud: 090-28-19W, altitud: 126 m

Observació

L'informe es va fer fa 1 hora i 5 minuts, a les 09:53 UTC
Vent 3 kt del Nord-Est
Temperatura 17°C
Humitat 88%
Pressió 1017 hPa
Visibilitat: 16.1 km
Cel cobert a una alçada de 5500 ft

METAR: KMCB 260953Z AUTO 04003KT 10SM OVC055 17/15 A3002 RMK AO2 SLP161 T01670150

Hora: 05:58 (10:58 UTC)

Pronòstic

L'informe es va fer fa 5 hores i 38 minuts, a les 05:20 UTC
Pronòstic vàlid del 26 a les 06 UTC al 27 a les 06 UTC
Vent 3 kt amb direcció variable
Visibilitat: 10 km
Cel cobert a una alçada de 5000 ft
A partir de les 26 a les 1100 UTC
Vent 4 kt amb direcció variable
Visibilitat: 10 km
Cel ennuvolat a una alçada de 3500 ft
A partir de les 26 a les 2000 UTC
Vent 5 kt del Est
Visibilitat: 10 km
Núvols disperses a una alçada de 20000 ft

TAF: KMCB 260520Z 2606/2706 VRB03KT P6SM OVC050 FM261100 VRB04KT P6SM BKN035 FM262000 09005KT P6SM SCT200

Observacions i pronòstics meteorològics de més de 4000 aeroports (METAR i TAF).

Les estacions disponibles són els punts grocs i vermells al mapa.

Posi el ratolí al punt desitjat per veure el nom de l'estació.

Feu clic per veure les observacions i els pronòstics meteorològics.

Per canviar el mapa: feu clic els botons verds amb una creu de color negre per apropar; al botó verd amb un guió per allunyar la imatge; o en les fletxes verdes per a mapes adjacents.


METAR-TAF: